createdAt,value
2023-04-27T00:02:31.578Z,17
2023-04-27T00:05:20.403Z,5
2023-04-27T00:08:08.973Z,6
2023-04-27T00:10:56.793Z,13
2023-04-27T00:13:44.852Z,14
2023-04-27T00:16:32.828Z,27
2023-04-27T00:19:20.984Z,18
2023-04-27T00:22:08.870Z,26
2023-04-27T00:24:56.850Z,18
2023-04-27T00:27:44.675Z,16
2023-04-27T00:30:32.585Z,13
2023-04-27T00:33:20.409Z,19
2023-04-27T00:36:08.292Z,13
2023-04-27T00:38:55.979Z,24
2023-04-27T00:41:43.654Z,21
2023-04-27T00:44:31.574Z,16
2023-04-27T00:47:19.543Z,17
2023-04-27T00:50:07.638Z,16
2023-04-27T00:52:55.503Z,23
2023-04-27T00:55:43.337Z,19
2023-04-27T00:58:31.431Z,22
2023-04-27T01:01:19.503Z,19
2023-04-27T01:04:07.772Z,25
2023-04-27T01:06:56.112Z,19
2023-04-27T01:09:44.557Z,14
2023-04-27T01:12:32.449Z,24
2023-04-27T01:15:20.279Z,16
2023-04-27T01:18:08.142Z,18
2023-04-27T01:20:56.215Z,19
2023-04-27T01:23:44.222Z,18
2023-04-27T01:26:32.177Z,27
2023-04-27T01:29:20.067Z,25
2023-04-27T01:32:07.920Z,8
2023-04-27T01:34:56.112Z,6
2023-04-27T01:37:47.982Z,15
2023-04-27T01:40:35.923Z,18
2023-04-27T01:43:23.758Z,19
2023-04-27T01:46:11.668Z,21
2023-04-27T01:48:59.926Z,14
2023-04-27T01:51:47.647Z,15
2023-04-27T01:54:35.546Z,26
2023-04-27T02:01:07.530Z,22
2023-04-27T02:07:39.818Z,24
2023-04-27T02:10:55.826Z,18
2023-04-27T02:14:11.789Z,20
2023-04-27T02:16:59.654Z,8
2023-04-27T02:19:47.488Z,16
2023-04-27T02:22:35.299Z,14
2023-04-27T02:25:51.139Z,24
2023-04-27T02:31:56.003Z,6
2023-04-27T02:35:12.110Z,10
2023-04-27T02:38:27.904Z,19
2023-04-27T02:41:15.769Z,18
2023-04-27T02:44:03.568Z,5
2023-04-27T02:47:47.863Z,21
2023-04-27T02:50:35.660Z,15
2023-04-27T02:57:07.587Z,7
2023-04-27T03:03:39.982Z,32
2023-04-27T03:06:28.412Z,19
2023-04-27T03:09:44.290Z,16
2023-04-27T03:15:48.368Z,22
2023-04-27T03:19:32.480Z,21
2023-04-27T03:22:20.417Z,21
2023-04-27T03:25:08.252Z,25
2023-04-27T03:27:56.130Z,21
2023-04-27T03:30:44.115Z,41
2023-04-27T03:33:32.137Z,35
2023-04-27T03:36:20.147Z,38
2023-04-27T03:39:08.028Z,46
2023-04-27T03:41:55.959Z,61
2023-04-27T03:44:43.801Z,75
2023-04-27T03:47:31.707Z,97
2023-04-27T03:50:19.708Z,127
2023-04-27T03:53:07.713Z,165
2023-04-27T03:55:55.805Z,218
2023-04-27T03:58:43.787Z,267
2023-04-27T04:01:32.443Z,337
2023-04-27T04:04:21.440Z,397
2023-04-27T04:07:09.952Z,457
2023-04-27T04:09:57.940Z,513
2023-04-27T04:12:45.692Z,563
2023-04-27T04:15:33.743Z,621
2023-04-27T04:18:21.762Z,665
2023-04-27T04:21:09.685Z,705
2023-04-27T04:23:57.526Z,731
2023-04-27T04:26:45.470Z,763
2023-04-27T04:29:33.297Z,775
2023-04-27T04:32:21.292Z,809
2023-04-27T04:35:09.331Z,807
2023-04-27T04:37:57.368Z,833
2023-04-27T04:40:46.034Z,848
2023-04-27T04:43:34.047Z,863
2023-04-27T04:46:22.237Z,867
2023-04-27T04:49:10.391Z,871
2023-04-27T04:51:58.846Z,884
2023-04-27T04:54:46.826Z,884
2023-04-27T04:57:34.842Z,896
2023-04-27T05:00:22.765Z,896
2023-04-27T05:03:10.710Z,897
2023-04-27T05:05:59.344Z,904
2023-04-27T05:08:47.332Z,893
2023-04-27T05:11:35.418Z,897
2023-04-27T05:14:23.482Z,914
2023-04-27T05:17:11.497Z,914
2023-04-27T05:19:59.435Z,917
2023-04-27T05:22:47.323Z,920
2023-04-27T05:25:35.182Z,924
2023-04-27T05:28:23.125Z,928
2023-04-27T05:31:11.132Z,934
2023-04-27T05:33:59.583Z,930
2023-04-27T05:36:56.324Z,936
2023-04-27T05:39:44.109Z,944
2023-04-27T05:42:32.098Z,941
2023-04-27T05:45:19.997Z,941
2023-04-27T05:48:08.179Z,943
2023-04-27T05:50:56.267Z,952
2023-04-27T05:53:44.197Z,943
2023-04-27T05:56:32.115Z,945
2023-04-27T05:59:19.923Z,946
2023-04-27T06:02:07.974Z,946
2023-04-27T06:04:56.507Z,949
2023-04-27T06:07:44.711Z,954
2023-04-27T06:10:32.648Z,953
2023-04-27T06:13:20.486Z,962
2023-04-27T06:16:08.420Z,958
2023-04-27T06:18:56.449Z,959
2023-04-27T06:21:44.440Z,967
2023-04-27T06:24:32.381Z,964
2023-04-27T06:27:20.266Z,963
2023-04-27T06:30:08.158Z,950
2023-04-27T06:32:59.404Z,952
2023-04-27T06:35:47.657Z,960
2023-04-27T06:38:35.715Z,970
2023-04-27T06:41:23.783Z,955
2023-04-27T06:44:11.929Z,958
2023-04-27T06:46:59.669Z,963
2023-04-27T06:49:49.584Z,969
2023-04-27T06:52:37.660Z,966
2023-04-27T06:55:25.705Z,969
2023-04-27T06:58:13.659Z,970
2023-04-27T07:01:01.642Z,969
2023-04-27T07:03:49.852Z,976
2023-04-27T07:06:38.341Z,967
2023-04-27T07:09:27.676Z,977
2023-04-27T07:12:16.003Z,970
2023-04-27T07:15:04.307Z,965
2023-04-27T07:17:52.274Z,978
2023-04-27T07:20:40.388Z,970
2023-04-27T07:23:28.368Z,980
2023-04-27T07:26:16.463Z,975
2023-04-27T07:29:11.415Z,989
2023-04-27T07:32:06.814Z,988
2023-04-27T07:34:55.174Z,991
2023-04-27T07:37:43.188Z,995
2023-04-27T07:40:31.000Z,998
2023-04-27T07:43:19.231Z,981
2023-04-27T07:46:07.217Z,996
2023-04-27T07:48:55.399Z,997
2023-04-27T07:51:43.352Z,1001
2023-04-27T07:54:31.458Z,985
2023-04-27T07:57:19.623Z,988
2023-04-27T08:00:07.669Z,993
2023-04-27T08:02:55.800Z,1000
2023-04-27T08:05:45.159Z,994
2023-04-27T08:08:34.660Z,995
2023-04-27T08:11:22.585Z,997
2023-04-27T08:14:10.561Z,997
2023-04-27T08:16:58.819Z,996
2023-04-27T08:19:47.048Z,1004
2023-04-27T08:22:35.106Z,1003
2023-04-27T08:25:23.093Z,993
2023-04-27T08:28:11.035Z,1000
2023-04-27T08:30:58.918Z,991
2023-04-27T08:33:47.002Z,1000
2023-04-27T08:36:35.047Z,995
2023-04-27T08:39:23.186Z,998
2023-04-27T08:42:11.028Z,998
2023-04-27T08:44:58.910Z,1004
2023-04-27T08:47:46.787Z,999
2023-04-27T08:50:35.142Z,1003
2023-04-27T08:53:23.103Z,998
2023-04-27T08:56:11.218Z,982
2023-04-27T08:58:59.121Z,1003
2023-04-27T09:01:47.171Z,999
2023-04-27T09:04:35.646Z,988
2023-04-27T09:07:24.563Z,997
2023-04-27T09:10:13.465Z,1000
2023-04-27T09:13:01.394Z,992
2023-04-27T09:15:49.303Z,987
2023-04-27T09:18:37.538Z,1004
2023-04-27T09:21:25.261Z,999
2023-04-27T09:24:13.319Z,996
2023-04-27T09:27:01.309Z,1001
2023-04-27T09:29:49.236Z,995
2023-04-27T09:32:37.215Z,1000
2023-04-27T09:35:25.525Z,1003
2023-04-27T09:38:14.125Z,989
2023-04-27T09:41:03.348Z,992
2023-04-27T09:43:51.514Z,993
2023-04-27T09:46:39.560Z,1002
2023-04-27T09:49:27.487Z,998
2023-04-27T09:52:15.374Z,1001
2023-04-27T09:55:03.210Z,995
2023-04-27T09:57:51.234Z,1001
2023-04-27T10:00:39.190Z,1003
2023-04-27T10:03:27.483Z,998
2023-04-27T10:06:16.042Z,1002
2023-04-27T10:09:03.947Z,997
2023-04-27T10:11:51.804Z,1007
2023-04-27T10:14:39.745Z,997
2023-04-27T10:17:27.740Z,1000
2023-04-27T10:20:15.974Z,1012
2023-04-27T10:23:03.820Z,999
2023-04-27T10:25:51.740Z,996
2023-04-27T10:28:39.638Z,995
2023-04-27T10:31:27.619Z,1002
2023-04-27T10:34:15.589Z,1001
2023-04-27T10:37:03.445Z,1011
2023-04-27T10:39:52.853Z,996
2023-04-27T10:42:42.850Z,1006
2023-04-27T10:45:31.889Z,1005
2023-04-27T11:31:41.630Z,162
2023-04-27T11:34:07.578Z,162
2023-04-27T11:54:35.269Z,1004
2023-04-27T11:57:21.135Z,1001
2023-04-27T12:00:06.774Z,993
2023-04-27T12:02:52.564Z,1004
2023-04-27T12:05:39.233Z,1002
2023-04-27T12:08:50.949Z,998
2023-04-27T12:11:36.760Z,1004
2023-04-27T12:49:37.742Z,1002
2023-04-27T12:52:25.452Z,1005
2023-04-27T12:55:21.460Z,1004
2023-04-27T12:58:12.820Z,1004
2023-04-27T13:01:00.614Z,1003
2023-04-27T13:03:48.667Z,1002
2023-04-27T13:06:38.964Z,1006
2023-04-27T13:09:26.986Z,1003
2023-04-27T13:12:14.708Z,1011
2023-04-27T13:15:02.496Z,995
2023-04-27T13:17:50.495Z,1004
2023-04-27T13:20:38.575Z,1005
2023-04-27T13:23:26.459Z,1004
2023-04-27T13:26:14.247Z,1007
2023-04-27T13:29:02.024Z,1003
2023-04-27T13:31:49.656Z,993
2023-04-27T13:34:37.500Z,997
2023-04-27T13:37:25.273Z,1001
2023-04-27T13:40:13.105Z,1000
2023-04-27T13:43:00.998Z,1006
2023-04-27T13:45:48.892Z,1002
2023-04-27T13:48:36.649Z,997
2023-04-27T13:51:24.544Z,998
2023-04-27T13:54:12.448Z,1002
2023-04-27T13:57:00.655Z,984
2023-04-27T13:59:48.459Z,994
2023-04-27T14:02:36.588Z,996
2023-04-27T14:05:25.295Z,996
2023-04-27T14:08:13.142Z,993
2023-04-27T14:11:00.845Z,995
2023-04-27T14:13:48.733Z,995
2023-04-27T14:16:36.586Z,993
2023-04-27T14:19:24.842Z,995
2023-04-27T14:22:12.579Z,991
2023-04-27T14:25:00.643Z,1006
2023-04-27T14:27:48.452Z,990
2023-04-27T14:30:36.415Z,990
2023-04-27T14:33:24.427Z,989
2023-04-27T14:36:12.259Z,994
2023-04-27T14:39:00.108Z,985
2023-04-27T14:41:47.993Z,991
2023-04-27T14:44:35.914Z,989
2023-04-27T14:47:24.074Z,989
2023-04-27T14:50:12.107Z,989
2023-04-27T14:53:00.504Z,986
2023-04-27T14:55:48.231Z,983
2023-04-27T14:58:35.854Z,987
2023-04-27T15:01:23.528Z,985
2023-04-27T15:04:11.817Z,988
2023-04-27T15:06:59.879Z,988
2023-04-27T15:09:47.665Z,982
2023-04-27T15:12:35.391Z,992
2023-04-27T15:15:23.174Z,989
2023-04-27T15:18:11.160Z,991
2023-04-27T15:20:58.926Z,993
2023-04-27T15:23:46.932Z,989
2023-04-27T15:26:34.746Z,987
2023-04-27T15:29:22.498Z,987
2023-04-27T15:32:10.394Z,982
2023-04-27T15:34:58.216Z,981
2023-04-27T15:37:46.032Z,985
2023-04-27T15:40:33.814Z,985
2023-04-27T15:43:21.618Z,979
2023-04-27T15:46:09.509Z,983
2023-04-27T15:48:57.382Z,982
2023-04-27T15:51:45.169Z,980
2023-04-27T15:54:33.035Z,976
2023-04-27T15:57:20.937Z,977
2023-04-27T16:00:08.824Z,973
2023-04-27T16:02:56.916Z,974
2023-04-27T16:05:45.204Z,974
2023-04-27T16:08:32.944Z,975
2023-04-27T16:11:20.650Z,975
2023-04-27T16:14:08.663Z,972
2023-04-27T16:16:56.468Z,974
2023-04-27T16:19:44.534Z,971
2023-04-27T16:22:32.417Z,973
2023-04-27T16:25:20.052Z,989
2023-04-27T16:28:08.112Z,973
2023-04-27T16:30:56.044Z,976
2023-04-27T16:33:44.014Z,972
2023-04-27T16:36:31.806Z,970
2023-04-27T16:39:19.638Z,966
2023-04-27T16:42:07.317Z,962
2023-04-27T16:44:55.121Z,964
2023-04-27T16:47:42.889Z,966
2023-04-27T16:50:30.762Z,968
2023-04-27T16:53:18.507Z,963
2023-04-27T16:56:06.382Z,964
2023-04-27T16:58:53.942Z,964
2023-04-27T17:01:41.967Z,962
2023-04-27T17:04:44.566Z,962
2023-04-27T17:07:32.905Z,953
2023-04-27T17:10:24.751Z,954
2023-04-27T17:13:12.555Z,956
2023-04-27T17:16:00.578Z,953
2023-04-27T17:18:48.757Z,944
2023-04-27T17:21:36.556Z,947
2023-04-27T17:24:24.311Z,946
2023-04-27T17:27:12.075Z,942
2023-04-27T17:29:59.797Z,941
2023-04-27T17:32:47.648Z,946
2023-04-27T17:35:35.653Z,931
2023-04-27T17:38:23.615Z,931
2023-04-27T17:41:11.336Z,919
2023-04-27T17:43:59.128Z,910
2023-04-27T17:46:46.779Z,898
2023-04-27T17:49:34.605Z,889
2023-04-27T17:52:22.559Z,881
2023-04-27T17:55:10.422Z,869
2023-04-27T17:57:58.299Z,860
2023-04-27T18:00:47.780Z,859
2023-04-27T18:03:35.800Z,838
2023-04-27T18:06:25.440Z,826
2023-04-27T18:09:13.423Z,814
2023-04-27T18:12:01.419Z,804
2023-04-27T18:14:49.221Z,783
2023-04-27T18:17:37.118Z,763
2023-04-27T18:20:26.089Z,750
2023-04-27T18:23:15.223Z,737
2023-04-27T18:26:03.382Z,700
2023-04-27T18:28:51.297Z,676
2023-04-27T18:31:39.340Z,650
2023-04-27T18:34:27.377Z,625
2023-04-27T18:37:15.360Z,600
2023-04-27T18:40:03.136Z,560
2023-04-27T18:42:50.992Z,517
2023-04-27T18:45:38.769Z,490
2023-04-27T18:48:26.941Z,450
2023-04-27T18:51:14.689Z,440
2023-04-27T18:54:02.527Z,377
2023-04-27T18:56:50.350Z,339
2023-04-27T18:59:38.323Z,292
2023-04-27T19:02:26.238Z,232
2023-04-27T19:05:14.573Z,187
2023-04-27T19:08:02.769Z,142
2023-04-27T19:10:50.593Z,114
2023-04-27T19:13:38.126Z,91
2023-04-27T19:16:26.030Z,71
2023-04-27T19:19:14.322Z,54
2023-04-27T19:22:02.608Z,47
2023-04-27T19:24:50.286Z,43
2023-04-27T19:27:38.174Z,40
2023-04-27T19:30:25.840Z,29
2023-04-27T19:33:13.956Z,28
2023-04-27T19:36:13.963Z,26
2023-04-27T19:39:01.789Z,24
2023-04-27T19:41:53.571Z,32
2023-04-27T19:44:41.505Z,28
2023-04-27T19:47:29.095Z,21
2023-04-27T19:50:17.209Z,25
2023-04-27T19:53:05.216Z,26
2023-04-27T19:55:53.050Z,27
2023-04-27T19:58:40.930Z,27
2023-04-27T20:01:28.748Z,28
2023-04-27T20:04:17.027Z,24
2023-04-27T20:08:01.802Z,23
2023-04-27T20:15:28.049Z,29
2023-04-27T20:22:01.607Z,29
2023-04-27T20:25:18.614Z,25
2023-04-27T20:28:06.429Z,30
2023-04-27T20:31:22.579Z,26
2023-04-27T20:34:10.510Z,26
2023-04-27T20:36:58.216Z,33
2023-04-27T20:39:45.919Z,31
2023-04-27T20:42:34.344Z,33
2023-04-27T20:45:22.068Z,28
2023-04-27T20:48:09.951Z,26
2023-04-27T20:50:57.673Z,26
2023-04-27T20:53:45.556Z,23
2023-04-27T20:56:33.946Z,32
2023-04-27T20:59:21.660Z,29
2023-04-27T21:02:09.311Z,22
2023-04-27T21:04:57.402Z,28
2023-04-27T21:07:45.082Z,27
2023-04-27T21:10:32.865Z,26
2023-04-27T21:14:16.949Z,26
2023-04-27T21:25:01.503Z,36
2023-04-27T21:31:33.483Z,28
2023-04-27T21:38:34.079Z,27
2023-04-27T21:48:50.247Z,25
2023-04-27T21:52:20.829Z,26
2023-04-27T21:55:08.368Z,26
2023-04-27T21:57:56.113Z,22
2023-04-27T22:00:43.948Z,30
2023-04-27T22:03:32.040Z,29
2023-04-27T22:06:20.313Z,28
2023-04-27T22:09:08.297Z,31
2023-04-27T22:11:56.104Z,25
2023-04-27T22:14:43.835Z,28
2023-04-27T22:17:31.623Z,27
2023-04-27T22:20:19.624Z,27
2023-04-27T22:23:07.182Z,27
2023-04-27T22:25:55.125Z,28
2023-04-27T22:28:42.779Z,29
2023-04-27T22:31:30.557Z,26
2023-04-27T22:34:18.772Z,28
2023-04-27T22:37:06.622Z,27
2023-04-27T22:39:54.363Z,27
2023-04-27T22:42:42.237Z,29
2023-04-27T22:45:29.860Z,24
2023-04-27T22:48:17.812Z,25
2023-04-27T22:51:05.684Z,43
2023-04-27T22:53:53.474Z,26
2023-04-27T22:56:41.190Z,33
2023-04-27T22:59:29.033Z,23
2023-04-27T23:02:16.854Z,25
2023-04-27T23:05:05.316Z,27
2023-04-27T23:07:53.155Z,28
2023-04-27T23:10:40.906Z,27
2023-04-27T23:13:28.589Z,30
2023-04-27T23:16:16.519Z,29
2023-04-27T23:19:04.290Z,27
2023-04-27T23:21:52.118Z,24
2023-04-27T23:24:39.953Z,25
2023-04-27T23:27:27.686Z,26
2023-04-27T23:30:15.286Z,26
2023-04-27T23:33:03.466Z,33
2023-04-27T23:35:51.348Z,25
2023-04-27T23:38:39.229Z,25
2023-04-27T23:41:26.957Z,29
2023-04-27T23:44:14.993Z,26
2023-04-27T23:47:02.855Z,22
2023-04-27T23:49:50.754Z,25
2023-04-27T23:52:38.522Z,26
2023-04-27T23:55:26.391Z,26
2023-04-27T23:58:14.154Z,25
